»·PEaware :: ATN751 KMCC-KLAX

ATN751 :: KMCC-KLAX

FLIGHT INFORMATION

Flight Status: Arrived
Operator:
Air Transport International
More flights by this operator :: More flights under this callsign
Pilot: Max H. (24278)
Aircraft: BOEING 757-200
(B752)
More flights by this aircraft type
Origin: KMCC McClellan
United States
Destination: KLAX Los Angeles Intl
United States
More flights between these airports :: More routes between these airports
Route: FTHIL GRDOE FRA REBRG IRNMN2
File this flight plan on PilotEdge
Remarks:
Altitude:
(Current/Filed)
37,000ft
Speed:
(Current/Filed)
150kts
Departed: 10-Nov-20 05:37 PM
Arrived: 10-Nov-20 06:41 PM
Distance/Time
Traveled:
319nm/1:04
Distance/Time
To Go:
Arrived

Flight Plot

Page will automatically refresh every two minutes.

Flight plan parsing failed; only flown route is shown


Map Options




Map Legend


Flown Route
Filed Route
Departure Airport
Arrival Airport
Navaid (VOR, NDB)
Fix

Horizontal Profiles

Position Reports

Time Latitude Longitude Heading Altitude Ground
Speed
10-Nov-20 17:14 38.663068 -121.397116 0 76ft 0kts
10-Nov-20 17:15 38.663068 -121.397116 0 76ft 0kts
10-Nov-20 17:16 38.663068 -121.397116 0 76ft 0kts
10-Nov-20 17:17 38.663068 -121.397116 0 76ft 0kts
10-Nov-20 17:18 38.663068 -121.397116 0 76ft 0kts
10-Nov-20 17:19 38.663068 -121.397116 0 76ft 0kts
10-Nov-20 17:20 38.663068 -121.397116 0 76ft 0kts
10-Nov-20 17:21 38.663068 -121.397116 0 76ft 0kts
10-Nov-20 17:22 38.663068 -121.397116 0 76ft 0kts
10-Nov-20 17:23 38.663068 -121.397116 0 76ft 0kts
10-Nov-20 17:24 38.663068 -121.397116 0 76ft 0kts
10-Nov-20 17:25 38.663068 -121.397116 0 76ft 0kts
10-Nov-20 17:26 38.663068 -121.397116 0 76ft 0kts
10-Nov-20 17:27 38.663068 -121.397116 0 76ft 0kts
10-Nov-20 17:28 38.663068 -121.397116 0 76ft 0kts
10-Nov-20 17:29 38.663079 -121.397116 359 76ft 0kts
10-Nov-20 17:30 38.663842 -121.397235 351 76ft 4kts
10-Nov-20 17:31 38.666025 -121.397847 358 76ft 15kts
10-Nov-20 17:32 38.672142 -121.397843 0 76ft 22kts
10-Nov-20 17:33 38.677336 -121.397833 359 76ft 15kts
10-Nov-20 17:34 38.682514 -121.398176 309 76ft 9kts
10-Nov-20 17:35 38.682289 -121.399694 226 76ft 17kts
10-Nov-20 17:36 38.662340 -121.400655 180 396ft 157kts
10-Nov-20 17:37 38.612680 -121.398640 177 2275ft 195kts
10-Nov-20 17:38 38.569911 -121.355492 122 4186ft 247kts
10-Nov-20 17:39 38.530329 -121.277662 127 7206ft 273kts
10-Nov-20 17:40 38.485308 -121.194527 126 10137ft 296kts
10-Nov-20 17:41 38.431523 -121.095896 124 11812ft 370kts
10-Nov-20 17:42 38.370763 -120.984804 124 14934ft 392kts
10-Nov-20 17:43 38.306497 -120.867765 124 17752ft 414kts
10-Nov-20 17:44 38.238472 -120.744349 125 20295ft 435kts
10-Nov-20 17:45 38.167313 -120.615740 125 22589ft 454kts
10-Nov-20 17:46 38.092906 -120.481805 126 24688ft 471kts
10-Nov-20 17:47 38.015846 -120.343220 127 26581ft 487kts
10-Nov-20 17:48 37.929104 -120.208909 147 28262ft 492kts
10-Nov-20 17:49 37.812406 -120.117444 154 29854ft 497kts
10-Nov-20 17:50 37.692173 -120.027771 155 31284ft 507kts
10-Nov-20 17:51 37.570403 -119.937498 156 33010ft 505kts
10-Nov-20 17:52 37.450347 -119.848888 156 34618ft 501kts
10-Nov-20 17:53 37.330508 -119.760777 156 36005ft 498kts
10-Nov-20 17:54 37.210953 -119.673206 156 36966ft 498kts
10-Nov-20 17:55 37.089999 -119.603604 178 37244ft 468kts
10-Nov-20 17:56 36.961345 -119.598647 187 37234ft 466kts
10-Nov-20 17:57 36.832706 -119.600234 188 37233ft 465kts
10-Nov-20 17:58 36.703184 -119.602405 188 37234ft 467kts
10-Nov-20 17:59 36.573701 -119.604619 188 37236ft 466kts
10-Nov-20 18:00 36.444252 -119.606840 188 37243ft 466kts
10-Nov-20 18:01 36.314806 -119.609049 188 37243ft 466kts
10-Nov-20 18:02 36.185658 -119.611242 188 37242ft 465kts
10-Nov-20 18:03 36.056178 -119.613441 188 37243ft 466kts
10-Nov-20 18:04 35.930872 -119.634507 204 37241ft 449kts
10-Nov-20 18:05 35.811390 -119.678696 204 37233ft 447kts
10-Nov-20 18:06 35.692632 -119.723073 204 37226ft 448kts
10-Nov-20 18:07 35.569745 -119.756207 198 37222ft 454kts
10-Nov-20 18:08 35.446048 -119.786202 199 37207ft 439kts
10-Nov-20 18:09 35.328528 -119.809594 186 35376ft 434kts
10-Nov-20 18:10 35.211279 -119.756206 146 33290ft 480kts
10-Nov-20 18:11 35.105525 -119.653380 146 31026ft 485kts
10-Nov-20 18:12 34.997683 -119.552777 145 28839ft 482kts
10-Nov-20 18:13 34.893768 -119.456997 145 26662ft 466kts
10-Nov-20 18:14 34.789085 -119.363409 144 23965ft 460kts
10-Nov-20 18:15 34.687103 -119.273489 145 21931ft 440kts
10-Nov-20 18:16 34.591612 -119.190723 145 20466ft 410kts
10-Nov-20 18:17 34.500442 -119.110648 144 18568ft 396kts
10-Nov-20 18:18 34.412184 -119.033124 144 16710ft 383kts
10-Nov-20 18:19 34.327272 -118.959038 142 14956ft 369kts
10-Nov-20 18:20 34.246578 -118.885680 142 13254ft 355kts
10-Nov-20 18:21 34.169559 -118.814934 142 11996ft 314kts
10-Nov-20 18:22 34.104458 -118.744905 137 10827ft 307kts
10-Nov-20 18:23 34.042744 -118.677716 134 9721ft 289kts
10-Nov-20 18:24 34.022729 -118.588131 95 8470ft 274kts
10-Nov-20 18:25 34.014384 -118.501502 95 7638ft 245kts
10-Nov-20 18:26 34.012929 -118.420007 77 7097ft 244kts
10-Nov-20 18:27 34.025233 -118.340971 83 6259ft 238kts
10-Nov-20 18:28 34.033613 -118.262213 82 5986ft 236kts
10-Nov-20 18:29 34.042418 -118.183299 81 5567ft 235kts
10-Nov-20 18:30 34.051846 -118.106088 81 4988ft 232kts
10-Nov-20 18:31 34.041492 -118.035250 152 4982ft 228kts
10-Nov-20 18:32 33.980658 -118.029679 216 4976ft 221kts
10-Nov-20 18:33 33.961424 -118.094444 272 4812ft 220kts
10-Nov-20 18:34 33.958658 -118.166373 265 3693ft 212kts
10-Nov-20 18:35 33.953373 -118.224814 263 2697ft 146kts
10-Nov-20 18:36 33.948937 -118.269355 263 1996ft 130kts
10-Nov-20 18:37 33.944529 -118.312711 263 1290ft 129kts
10-Nov-20 18:38 33.940055 -118.355875 264 614ft 130kts
10-Nov-20 18:40 33.935960 -118.396356 263 118ft 96kts
10-Nov-20 18:41 33.933883 -118.407131 174 116ft 0kts
10-Nov-20 18:42 33.933807 -118.403872 145 116ft 6kts

Navigation Log

Ident Type
Flight plan parsing failed, navigation log unavailable